Rapports METAR des aéroports proches

 

LFSI - St. Dizier/Robin, France
Distance from station: SO 26km
Mise à jour: 25/02/2018 22:00
clair
clair
 Wind from ENE
Vent: ENE 20 km/h
Température: -2°C
Wind Chill: -8°C
Point de rosée: -16°C
Humidité: 34%
Baromètre: 1022 hPa
Résumé: clair
Visibility: greater than 10 km
2018/02/25 21:00 LFSI 252100Z AUTO 06011KT CAVOK M02/M16 Q1022
LFSO - Nancy/Ochey (faf, France
Distance from station: ESE 62km
Mise à jour: 25/02/2018 22:00
clair
clair
 Wind from ENE
Vent: ENE 20 km/h
Température: -4°C
Wind Chill: -11°C
Point de rosée: -16°C
Humidité: 39%
Baromètre: 1021 hPa
Résumé: clair
Visibility: greater than 10 km
2018/02/25 21:00 LFSO 252100Z AUTO 06011KT CAVOK M04/M16 Q1021
 
LFOK - Chalons/Vatry Fa, France
Distance from station: O 73km
Mise à jour: 25/02/2018 22:00
clair
clair
 Wind from NE
Vent: NE 19 km/h
Température: -4°C
Wind Chill: -10°C
Point de rosée: -12°C
Humidité: 54%
Baromètre: 1022 hPa
Résumé: clair
Visibility: greater than 10 km
2018/02/25 21:00 LFOK 252100Z AUTO 05010KT CAVOK M04/M12 Q1022 NOSIG
LFSN - Nancy/Essey, France
Distance from station: E 77km
Mise à jour: 25/02/2018 22:00
clair
clair
 Wind from ENE
Vent: ENE 13 km/h
Température: -6°C
Wind Chill: -12°C
Point de rosée: -15°C
Humidité: 49%
Baromètre: 1022 hPa
Résumé: clair
Visibility: greater than 10 km
2018/02/25 21:00 LFSN 252100Z AUTO 06007KT CAVOK M06/M15 Q1022
 
LFJL - Metz-Nancy-Lorra, France
Distance from station: ENE 82km
Mise à jour: 25/02/2018 22:00
clair
clair
 Wind from NE
Vent: NE 20 km/h
Température: -4°C
Wind Chill: -11°C
Point de rosée: -14°C
Humidité: 46%
Baromètre: 1022 hPa
Résumé: clair
Visibility: greater than 10 km
2018/02/25 21:00 LFJL 252100Z AUTO 05011KT CAVOK M04/M14 Q1022 NOSIG
LFQA - Reims/Prunay, France
Distance from station: ONO 89km
Mise à jour: 25/02/2018 22:00
clair
clair
 Wind from ENE
Vent: ENE 11 km/h
Température: -4°C
Wind Chill: -8°C
Point de rosée: -12°C
Humidité: 54%
Baromètre: 1024 hPa
Résumé: clair
Visibility: greater than 10 km
2018/02/25 21:00 LFQA 252100Z AUTO 06006KT CAVOK M04/M12 Q1024
 
LFQB - Troyes/Barberey, France
Distance from station: OSO 99km
Mise à jour: 25/02/2018 22:00
clair
clair
 Wind from NE
Vent: NE 13 km/h
Température: -2°C
Wind Chill: -7°C
Point de rosée: -13°C
Humidité: 43%
Baromètre: 1022 hPa
Résumé: clair
Visibility: greater than 10 km
2018/02/25 21:00 LFQB 252100Z AUTO 05007KT CAVOK M02/M13 Q1022
ELLX - Luxembourg (aut), Luxembourg
Distance from station: NE 122km
Mise à jour: 25/02/2018 22:20
clair
clair
 Wind from ENE
Vent: ENE 22 km/h
Température: -4°C
Wind Chill: -11°C
Point de rosée: -16°C
Humidité: 39%
Baromètre: 1022 hPa
Résumé: clair
Visibility: greater than 10 km
2018/02/25 21:20 ELLX 252120Z 07012KT 040V100 CAVOK M04/M16 Q1022 NOSIG